createdAt,value
2023-05-05T00:00:12.416Z,24.89
2023-05-05T00:01:12.471Z,24.87
2023-05-05T00:02:12.510Z,24.87
2023-05-05T00:03:12.678Z,24.86
2023-05-05T00:04:12.602Z,24.87
2023-05-05T00:05:12.623Z,24.87
2023-05-05T00:06:12.639Z,24.89
2023-05-05T00:07:12.645Z,24.87
2023-05-05T00:08:12.671Z,24.85
2023-05-05T00:09:12.692Z,24.89
2023-05-05T00:10:12.763Z,24.87
2023-05-05T00:11:12.780Z,24.87
2023-05-05T00:12:12.734Z,24.87
2023-05-05T00:13:12.900Z,24.89
2023-05-05T00:14:12.776Z,24.86
2023-05-05T00:15:12.779Z,24.87
2023-05-05T00:16:12.814Z,24.85
2023-05-05T00:17:12.904Z,24.87
2023-05-05T00:18:12.932Z,24.86
2023-05-05T00:19:12.927Z,24.85
2023-05-05T00:20:12.949Z,24.86
2023-05-05T00:21:12.968Z,24.87
2023-05-05T00:22:13.011Z,24.86
2023-05-05T00:23:13.035Z,24.86
2023-05-05T00:24:13.065Z,24.87
2023-05-05T00:25:13.116Z,24.86
2023-05-05T00:26:13.116Z,24.87
2023-05-05T00:27:13.133Z,24.85
2023-05-05T00:28:13.141Z,24.89
2023-05-05T00:29:13.168Z,24.85
2023-05-05T00:30:13.157Z,24.86
2023-05-05T00:31:13.193Z,24.85
2023-05-05T00:32:13.179Z,24.86
2023-05-05T00:33:13.169Z,24.85
2023-05-05T00:34:13.246Z,24.85
2023-05-05T00:35:13.197Z,24.86
2023-05-05T00:36:13.207Z,24.85
2023-05-05T00:37:13.264Z,24.83
2023-05-05T00:38:13.237Z,24.86
2023-05-05T00:39:13.267Z,24.85
2023-05-05T00:40:13.266Z,24.87
2023-05-05T00:41:13.297Z,24.85
2023-05-05T00:42:13.301Z,24.83
2023-05-05T00:43:13.321Z,24.83
2023-05-05T00:44:13.343Z,24.85
2023-05-05T00:45:13.358Z,24.83
2023-05-05T00:46:13.398Z,24.85
2023-05-05T00:47:13.433Z,24.83
2023-05-05T00:48:13.421Z,24.83
2023-05-05T00:49:13.511Z,24.85
2023-05-05T00:50:13.496Z,24.83
2023-05-05T00:51:13.547Z,24.85
2023-05-05T00:52:13.651Z,24.83
2023-05-05T00:53:13.620Z,24.83
2023-05-05T00:54:13.615Z,24.83
2023-05-05T00:55:13.667Z,24.85
2023-05-05T00:56:13.633Z,24.83
2023-05-05T00:57:13.719Z,24.83
2023-05-05T00:58:13.720Z,24.85
2023-05-05T00:59:13.752Z,24.82
2023-05-05T01:00:13.740Z,24.85
2023-05-05T01:01:13.768Z,24.85
2023-05-05T01:02:13.802Z,24.82
2023-05-05T01:03:13.880Z,24.82
2023-05-05T01:04:13.841Z,24.82
2023-05-05T01:05:13.863Z,24.83
2023-05-05T01:06:13.858Z,24.83
2023-05-05T01:07:13.897Z,24.86
2023-05-05T01:08:13.862Z,24.83
2023-05-05T01:09:13.886Z,24.83
2023-05-05T01:10:20.212Z,24.83
2023-05-05T01:11:14.879Z,24.80
2023-05-05T01:12:13.881Z,24.80
2023-05-05T01:13:13.970Z,24.82
2023-05-05T01:14:13.858Z,24.82
2023-05-05T01:15:13.847Z,24.80
2023-05-05T01:16:13.878Z,24.80
2023-05-05T01:17:13.888Z,24.82
2023-05-05T01:18:13.836Z,24.82
2023-05-05T01:19:13.836Z,24.82
2023-05-05T01:20:13.814Z,24.83
2023-05-05T01:21:13.835Z,24.83
2023-05-05T01:22:13.798Z,24.80
2023-05-05T01:23:13.820Z,24.82
2023-05-05T01:24:13.804Z,24.82
2023-05-05T01:25:13.775Z,24.82
2023-05-05T01:26:13.792Z,24.80
2023-05-05T01:27:13.802Z,24.83
2023-05-05T01:28:13.771Z,24.80
2023-05-05T01:29:13.852Z,24.80
2023-05-05T01:30:13.911Z,24.82
2023-05-05T01:31:13.972Z,24.83
2023-05-05T01:32:13.989Z,24.82
2023-05-05T01:33:14.046Z,24.85
2023-05-05T01:34:14.087Z,24.83
2023-05-05T01:35:14.139Z,24.82
2023-05-05T01:36:14.179Z,24.82
2023-05-05T01:37:14.648Z,24.83
2023-05-05T01:38:14.250Z,24.80
2023-05-05T01:39:14.320Z,24.83
2023-05-05T01:40:14.360Z,24.83
2023-05-05T01:41:14.413Z,24.83
2023-05-05T01:42:14.440Z,24.80
2023-05-05T01:43:14.492Z,24.80
2023-05-05T01:44:14.555Z,24.83
2023-05-05T01:45:14.591Z,24.82
2023-05-05T01:46:14.777Z,24.80
2023-05-05T01:47:14.681Z,24.83
2023-05-05T01:48:14.731Z,24.83
2023-05-05T01:49:14.765Z,24.80
2023-05-05T01:50:14.805Z,24.80
2023-05-05T01:51:14.864Z,24.80
2023-05-05T01:52:14.923Z,24.82
2023-05-05T01:53:14.943Z,24.83
2023-05-05T01:54:14.966Z,24.80
2023-05-05T01:55:14.997Z,24.79
2023-05-05T01:56:15.061Z,24.82
2023-05-05T01:57:15.066Z,24.80
2023-05-05T01:58:15.111Z,24.82
2023-05-05T01:59:15.125Z,24.82
2023-05-05T02:00:15.182Z,24.80
2023-05-05T02:01:15.214Z,24.82
2023-05-05T02:02:15.299Z,24.82
2023-05-05T02:03:15.370Z,24.80
2023-05-05T02:04:15.353Z,24.82
2023-05-05T02:05:15.402Z,24.82
2023-05-05T02:06:15.460Z,24.79
2023-05-05T02:07:15.504Z,24.79
2023-05-05T02:08:15.574Z,24.80
2023-05-05T02:09:15.584Z,24.82
2023-05-05T02:10:15.614Z,24.80
2023-05-05T02:11:15.682Z,24.83
2023-05-05T02:12:15.714Z,24.79
2023-05-05T02:13:15.868Z,24.80
2023-05-05T02:14:15.791Z,24.79
2023-05-05T02:15:15.877Z,24.79
2023-05-05T02:16:15.934Z,24.80
2023-05-05T02:17:15.903Z,24.80
2023-05-05T02:18:15.909Z,24.82
2023-05-05T02:19:15.981Z,24.79
2023-05-05T02:20:15.985Z,24.80
2023-05-05T02:21:16.040Z,24.78
2023-05-05T02:22:16.021Z,24.83
2023-05-05T02:23:16.067Z,24.80
2023-05-05T02:24:16.063Z,24.82
2023-05-05T02:25:16.010Z,24.80
2023-05-05T02:26:16.066Z,24.79
2023-05-05T02:27:16.032Z,24.80
2023-05-05T02:28:16.031Z,24.78
2023-05-05T02:29:16.027Z,24.79
2023-05-05T02:30:16.036Z,24.78
2023-05-05T02:31:16.071Z,24.80
2023-05-05T02:32:16.003Z,24.79
2023-05-05T02:33:16.017Z,24.79
2023-05-05T02:34:16.013Z,24.80
2023-05-05T02:35:16.068Z,24.80
2023-05-05T02:36:16.003Z,24.80
2023-05-05T02:37:16.001Z,24.78
2023-05-05T02:38:15.985Z,24.79
2023-05-05T02:39:15.998Z,24.80
2023-05-05T02:40:15.980Z,24.80
2023-05-05T02:41:15.966Z,24.80
2023-05-05T02:42:15.974Z,24.78
2023-05-05T02:43:15.982Z,24.79
2023-05-05T02:44:15.970Z,24.78
2023-05-05T02:45:15.959Z,24.78
2023-05-05T02:46:16.215Z,24.76
2023-05-05T02:47:15.968Z,24.80
2023-05-05T02:48:15.971Z,24.79
2023-05-05T02:49:15.927Z,24.78
2023-05-05T02:50:15.965Z,24.78
2023-05-05T02:51:15.925Z,24.78
2023-05-05T02:52:15.932Z,24.78
2023-05-05T02:53:15.934Z,24.78
2023-05-05T02:54:15.978Z,24.79
2023-05-05T02:55:15.925Z,24.76
2023-05-05T02:56:15.912Z,24.76
2023-05-05T02:57:15.925Z,24.79
2023-05-05T02:58:15.943Z,24.78
2023-05-05T02:59:16.469Z,24.78
2023-05-05T03:00:15.991Z,24.78
2023-05-05T03:01:16.084Z,24.79
2023-05-05T03:02:16.171Z,24.78
2023-05-05T03:03:16.181Z,24.78
2023-05-05T03:04:16.106Z,24.79
2023-05-05T03:05:16.131Z,24.78
2023-05-05T03:06:16.166Z,24.76
2023-05-05T03:07:16.156Z,24.76
2023-05-05T03:08:16.214Z,24.76
2023-05-05T03:09:16.192Z,24.78
2023-05-05T03:10:16.239Z,24.78
2023-05-05T03:11:16.180Z,24.76
2023-05-05T03:12:16.219Z,24.76
2023-05-05T03:13:16.221Z,24.78
2023-05-05T03:14:16.185Z,24.76
2023-05-05T03:15:16.210Z,24.78
2023-05-05T03:16:16.212Z,24.78
2023-05-05T03:17:16.191Z,24.78
2023-05-05T03:18:16.212Z,24.78
2023-05-05T03:19:16.173Z,24.78
2023-05-05T03:20:16.214Z,24.76
2023-05-05T03:21:16.163Z,24.78
2023-05-05T03:22:16.176Z,24.79
2023-05-05T03:23:16.198Z,24.76
2023-05-05T03:24:16.161Z,24.76
2023-05-05T03:25:16.185Z,24.78
2023-05-05T03:26:16.188Z,24.78
2023-05-05T03:27:16.175Z,24.78
2023-05-05T03:28:16.190Z,24.76
2023-05-05T03:29:16.209Z,24.75
2023-05-05T03:30:16.168Z,24.78
2023-05-05T03:31:16.196Z,24.76
2023-05-05T03:32:16.145Z,24.78
2023-05-05T03:33:16.203Z,24.78
2023-05-05T03:34:16.165Z,24.73
2023-05-05T03:35:16.166Z,24.78
2023-05-05T03:36:16.186Z,24.75
2023-05-05T03:37:16.164Z,24.76
2023-05-05T03:38:16.172Z,24.75
2023-05-05T03:39:16.184Z,24.75
2023-05-05T03:40:16.161Z,24.75
2023-05-05T03:41:16.192Z,24.75
2023-05-05T03:42:16.192Z,24.75
2023-05-05T03:43:16.159Z,24.75
2023-05-05T03:44:16.151Z,24.72
2023-05-05T03:45:16.149Z,24.73
2023-05-05T03:46:16.315Z,24.76
2023-05-05T03:47:16.180Z,24.75
2023-05-05T03:48:16.136Z,24.78
2023-05-05T03:49:16.147Z,24.75
2023-05-05T03:50:16.138Z,24.73
2023-05-05T03:51:16.158Z,24.75
2023-05-05T03:52:16.169Z,24.73
2023-05-05T03:53:16.160Z,24.75
2023-05-05T03:54:16.170Z,24.73
2023-05-05T03:55:16.167Z,24.76
2023-05-05T03:56:16.168Z,24.72
2023-05-05T03:57:16.180Z,24.75
2023-05-05T03:58:16.242Z,24.75
2023-05-05T03:59:16.251Z,24.73
2023-05-05T04:00:16.328Z,24.73
2023-05-05T04:01:16.338Z,24.75
2023-05-05T04:02:18.381Z,24.76
2023-05-05T04:03:16.509Z,24.73
2023-05-05T04:04:16.412Z,24.75
2023-05-05T04:05:16.360Z,24.76
2023-05-05T04:06:16.349Z,24.76
2023-05-05T04:07:16.306Z,24.76
2023-05-05T04:08:16.384Z,24.76
2023-05-05T04:09:16.339Z,24.76
2023-05-05T04:10:16.305Z,24.75
2023-05-05T04:11:16.290Z,24.76
2023-05-05T04:12:16.297Z,24.75
2023-05-05T04:13:16.415Z,24.73
2023-05-05T04:14:16.322Z,24.73
2023-05-05T04:15:16.307Z,24.76
2023-05-05T04:16:16.355Z,24.76
2023-05-05T04:17:16.334Z,24.73
2023-05-05T04:18:16.337Z,24.75
2023-05-05T04:19:16.343Z,24.75
2023-05-05T04:20:16.408Z,24.75
2023-05-05T04:21:16.375Z,24.76
2023-05-05T04:22:16.383Z,24.73
2023-05-05T04:23:16.491Z,24.75
2023-05-05T04:24:16.431Z,24.76
2023-05-05T04:25:16.447Z,24.76
2023-05-05T04:26:16.445Z,24.75
2023-05-05T04:27:16.442Z,24.76
2023-05-05T04:28:16.518Z,24.76
2023-05-05T04:29:16.511Z,24.73
2023-05-05T04:30:16.514Z,24.75
2023-05-05T04:31:16.594Z,24.73
2023-05-05T04:32:16.570Z,24.75
2023-05-05T04:33:16.581Z,24.75
2023-05-05T04:34:16.617Z,24.76
2023-05-05T04:35:16.577Z,24.75
2023-05-05T04:36:16.605Z,24.76
2023-05-05T04:37:16.727Z,24.75
2023-05-05T04:38:16.782Z,24.78
2023-05-05T04:39:16.709Z,24.76
2023-05-05T04:40:16.727Z,24.75
2023-05-05T04:41:16.742Z,24.78
2023-05-05T04:42:16.714Z,24.78
2023-05-05T04:43:16.726Z,24.78
2023-05-05T04:44:16.751Z,24.78
2023-05-05T04:45:16.766Z,24.76
2023-05-05T04:46:16.867Z,24.76
2023-05-05T04:47:16.845Z,24.78
2023-05-05T04:48:16.909Z,24.79
2023-05-05T04:49:16.924Z,24.79
2023-05-05T04:50:16.961Z,24.80
2023-05-05T04:51:17.025Z,24.80
2023-05-05T04:52:17.043Z,24.79
2023-05-05T04:53:17.089Z,24.80
2023-05-05T04:54:17.133Z,24.80
2023-05-05T04:55:17.157Z,24.80
2023-05-05T04:56:17.256Z,24.82
2023-05-05T04:57:17.225Z,24.80
2023-05-05T04:58:17.305Z,24.80
2023-05-05T04:59:17.331Z,24.83
2023-05-05T05:00:17.365Z,24.80
2023-05-05T05:01:17.324Z,24.83
2023-05-05T05:02:17.401Z,24.82
2023-05-05T05:03:17.545Z,24.85
2023-05-05T05:04:17.378Z,24.82
2023-05-05T05:05:17.379Z,24.83
2023-05-05T05:06:17.354Z,24.83
2023-05-05T05:07:17.354Z,24.85
2023-05-05T05:08:17.379Z,24.83
2023-05-05T05:09:17.370Z,24.83
2023-05-05T05:10:17.345Z,24.85
2023-05-05T05:11:17.344Z,24.85
2023-05-05T05:12:17.330Z,24.83
2023-05-05T05:13:17.395Z,24.85
2023-05-05T05:14:17.338Z,24.85
2023-05-05T05:15:17.332Z,24.83
2023-05-05T05:16:17.354Z,24.85
2023-05-05T05:17:17.310Z,24.86
2023-05-05T05:18:17.462Z,24.83
2023-05-05T05:19:17.318Z,24.86
2023-05-05T05:20:17.313Z,24.85
2023-05-05T05:21:17.369Z,24.86
2023-05-05T05:22:17.387Z,24.85
2023-05-05T05:23:17.390Z,24.86
2023-05-05T05:24:17.393Z,24.85
2023-05-05T05:25:17.401Z,24.86
2023-05-05T05:26:17.439Z,24.85
2023-05-05T05:27:17.449Z,24.87
2023-05-05T05:28:17.424Z,24.83
2023-05-05T05:29:17.503Z,24.86
2023-05-05T05:30:17.436Z,24.85
2023-05-05T05:31:17.738Z,24.83
2023-05-05T05:32:17.466Z,24.86
2023-05-05T05:33:17.581Z,24.80
2023-05-05T05:34:17.665Z,24.86
2023-05-05T05:35:17.444Z,24.89
2023-05-05T05:36:17.459Z,24.90
2023-05-05T05:37:17.448Z,24.91
2023-05-05T05:38:17.459Z,24.94
2023-05-05T05:39:17.581Z,24.99
2023-05-05T05:40:17.466Z,25.02
2023-05-05T05:41:17.458Z,25.05
2023-05-05T05:42:17.534Z,25.10
2023-05-05T05:43:17.651Z,25.16
2023-05-05T05:44:17.557Z,25.20
2023-05-05T05:45:17.633Z,25.23
2023-05-05T05:46:18.315Z,25.30
2023-05-05T05:47:17.676Z,25.34
2023-05-05T05:48:17.676Z,25.38
2023-05-05T05:49:17.757Z,25.43
2023-05-05T05:50:17.804Z,25.44
2023-05-05T05:51:17.933Z,25.41
2023-05-05T05:52:18.045Z,25.47
2023-05-05T05:53:17.987Z,25.45
2023-05-05T05:54:18.049Z,25.48
2023-05-05T05:55:18.110Z,25.53
2023-05-05T05:56:18.118Z,25.54
2023-05-05T05:57:18.161Z,25.55
2023-05-05T05:58:18.224Z,25.60
2023-05-05T05:59:18.239Z,25.63
2023-05-05T06:00:18.321Z,25.65
2023-05-05T06:01:18.417Z,25.68
2023-05-05T06:02:18.413Z,25.71
2023-05-05T06:03:18.671Z,25.75
2023-05-05T06:04:18.506Z,25.80
2023-05-05T06:05:18.513Z,25.81
2023-05-05T06:06:18.728Z,25.84
2023-05-05T06:07:18.875Z,25.88
2023-05-05T06:08:19.223Z,25.91
2023-05-05T06:09:18.633Z,25.91
2023-05-05T06:10:28.098Z,25.94
2023-05-05T06:11:19.635Z,25.95
2023-05-05T06:12:18.585Z,25.97
2023-05-05T06:13:18.613Z,25.98
2023-05-05T06:14:20.119Z,25.99
2023-05-05T06:15:18.592Z,25.98
2023-05-05T06:16:18.591Z,25.97
2023-05-05T06:17:18.601Z,25.97
2023-05-05T06:18:18.635Z,25.95
2023-05-05T06:19:18.611Z,25.95
2023-05-05T06:20:18.558Z,25.94
2023-05-05T06:21:18.552Z,25.92
2023-05-05T06:22:18.508Z,25.92
2023-05-05T06:23:18.604Z,25.89
2023-05-05T06:24:18.507Z,25.89
2023-05-05T06:25:18.555Z,25.89
2023-05-05T06:26:18.531Z,25.91
2023-05-05T06:27:18.515Z,25.91
2023-05-05T06:28:18.848Z,25.91
2023-05-05T06:29:18.598Z,25.91
2023-05-05T06:30:18.473Z,25.94
2023-05-05T06:31:18.476Z,25.94
2023-05-05T06:32:18.459Z,25.94
2023-05-05T06:33:18.497Z,25.95
2023-05-05T06:34:18.456Z,25.97
2023-05-05T06:35:18.432Z,25.92
2023-05-05T06:36:18.463Z,25.94
2023-05-05T06:37:18.445Z,25.94
2023-05-05T06:38:18.829Z,25.94
2023-05-05T06:39:18.526Z,25.95
2023-05-05T06:40:18.544Z,25.94
2023-05-05T06:41:18.593Z,25.91
2023-05-05T06:42:18.644Z,25.88
2023-05-05T06:43:18.685Z,25.88
2023-05-05T06:44:18.900Z,25.83
2023-05-05T06:45:18.739Z,25.81
2023-05-05T06:46:18.902Z,25.78
2023-05-05T06:47:19.765Z,25.77
2023-05-05T06:48:18.906Z,25.73
2023-05-05T06:49:18.977Z,25.73
2023-05-05T06:50:21.769Z,25.68
2023-05-05T06:51:19.015Z,25.67
2023-05-05T06:52:19.031Z,25.65
2023-05-05T06:53:19.150Z,25.64
2023-05-05T06:54:18.995Z,25.60
2023-05-05T06:55:18.985Z,25.60
2023-05-05T06:56:18.956Z,25.60
2023-05-05T06:57:18.995Z,25.58
2023-05-05T06:58:18.944Z,25.57
2023-05-05T06:59:18.962Z,25.57
2023-05-05T07:00:19.030Z,25.55
2023-05-05T07:01:19.039Z,25.54
2023-05-05T07:02:18.959Z,25.54
2023-05-05T07:03:19.120Z,25.54
2023-05-05T07:04:19.070Z,25.51
2023-05-05T07:05:18.944Z,25.51
2023-05-05T07:06:18.894Z,25.51
2023-05-05T07:07:18.906Z,25.53
2023-05-05T07:08:18.977Z,25.51
2023-05-05T07:09:19.133Z,25.51
2023-05-05T07:10:18.976Z,25.48
2023-05-05T07:11:18.948Z,25.48
2023-05-05T07:12:19.072Z,25.48
2023-05-05T07:13:18.899Z,25.47
2023-05-05T07:14:20.575Z,25.47
2023-05-05T07:15:27.490Z,25.44
2023-05-05T07:16:20.265Z,25.37
2023-05-05T07:17:19.107Z,25.43
2023-05-05T07:18:19.108Z,25.41
2023-05-05T07:19:19.138Z,25.43
2023-05-05T07:20:19.042Z,25.38
2023-05-05T07:21:19.075Z,25.33
2023-05-05T07:22:19.054Z,25.34
2023-05-05T07:23:19.007Z,25.29
2023-05-05T07:24:19.027Z,25.31
2023-05-05T07:25:19.163Z,25.21
2023-05-05T07:26:19.132Z,25.17
2023-05-05T07:27:19.120Z,25.16
2023-05-05T07:28:19.156Z,25.17
2023-05-05T07:29:19.272Z,25.19
2023-05-05T07:30:19.705Z,25.24
2023-05-05T07:31:19.335Z,25.21
2023-05-05T07:32:19.437Z,25.23
2023-05-05T07:33:19.283Z,25.24
2023-05-05T07:34:19.780Z,25.27
2023-05-05T07:35:19.334Z,25.30
2023-05-05T07:36:19.337Z,25.27
2023-05-05T07:37:19.354Z,25.30
2023-05-05T07:38:19.437Z,25.36
2023-05-05T07:39:19.426Z,25.34
2023-05-05T07:40:19.483Z,25.31
2023-05-05T07:41:19.601Z,25.37
2023-05-05T07:42:19.926Z,25.40
2023-05-05T07:43:19.754Z,25.45
2023-05-05T07:44:19.761Z,25.47
2023-05-05T07:45:19.826Z,25.51
2023-05-05T07:46:19.867Z,25.54
2023-05-05T07:47:20.081Z,25.60
2023-05-05T07:48:19.896Z,25.63
2023-05-05T07:49:19.924Z,25.64
2023-05-05T07:50:20.065Z,25.68
2023-05-05T07:51:20.139Z,25.73
2023-05-05T07:52:25.231Z,25.73
2023-05-05T07:53:20.984Z,25.75
2023-05-05T07:54:20.036Z,25.74
2023-05-05T07:55:20.008Z,25.80
2023-05-05T07:56:21.651Z,25.81
2023-05-05T07:57:20.199Z,25.83
2023-05-05T07:58:19.968Z,25.83
2023-05-05T07:59:19.965Z,25.85
2023-05-05T08:00:19.945Z,25.88
2023-05-05T08:01:19.955Z,25.89
2023-05-05T08:02:19.943Z,25.89
2023-05-05T08:03:20.118Z,25.94
2023-05-05T08:04:19.998Z,25.98
2023-05-05T08:05:19.953Z,25.99
2023-05-05T08:06:19.888Z,26.01
2023-05-05T08:07:19.902Z,26.04
2023-05-05T08:08:19.886Z,26.09
2023-05-05T08:09:19.904Z,26.08
2023-05-05T08:10:19.864Z,26.11
2023-05-05T08:11:19.853Z,26.12
2023-05-05T08:12:19.881Z,26.14
2023-05-05T08:13:20.009Z,26.17
2023-05-05T08:14:19.866Z,26.21
2023-05-05T08:15:19.900Z,26.22
2023-05-05T08:16:19.873Z,26.24
2023-05-05T08:17:19.830Z,26.28
2023-05-05T08:18:19.826Z,26.27
2023-05-05T08:19:28.946Z,26.28
2023-05-05T08:20:20.862Z,26.31
2023-05-05T08:21:19.839Z,26.29
2023-05-05T08:22:19.787Z,26.32
2023-05-05T08:23:19.855Z,26.36
2023-05-05T08:24:19.776Z,26.39
2023-05-05T08:25:19.798Z,26.39
2023-05-05T08:26:19.767Z,26.42
2023-05-05T08:27:19.753Z,26.46
2023-05-05T08:28:19.749Z,26.46
2023-05-05T08:29:20.085Z,26.45
2023-05-05T08:30:19.837Z,26.45
2023-05-05T08:31:19.859Z,26.42
2023-05-05T08:32:19.843Z,26.39
2023-05-05T08:33:19.954Z,26.39
2023-05-05T08:34:19.824Z,26.35
2023-05-05T08:35:19.827Z,26.34
2023-05-05T08:36:19.844Z,26.35
2023-05-05T08:37:19.821Z,26.27
2023-05-05T08:38:19.834Z,26.28
2023-05-05T08:39:19.835Z,26.27
2023-05-05T08:40:19.854Z,26.18
2023-05-05T08:41:19.863Z,26.14
2023-05-05T08:42:32.829Z,26.15
2023-05-05T08:43:20.879Z,26.12
2023-05-05T08:44:20.292Z,26.15
2023-05-05T08:45:20.005Z,26.14
2023-05-05T08:46:19.932Z,26.18
2023-05-05T08:47:19.847Z,26.19
2023-05-05T08:48:19.827Z,26.24
2023-05-05T08:49:19.826Z,26.27
2023-05-05T08:50:19.826Z,26.29
2023-05-05T08:51:19.825Z,26.29
2023-05-05T08:52:19.824Z,26.31
2023-05-05T08:53:19.812Z,26.32
2023-05-05T08:54:19.797Z,26.34
2023-05-05T08:55:19.779Z,26.34
2023-05-05T08:56:19.781Z,26.39
2023-05-05T08:57:19.780Z,26.39
2023-05-05T08:58:19.779Z,26.39
2023-05-05T08:59:19.809Z,26.40
2023-05-05T09:00:19.764Z,26.42
2023-05-05T09:01:19.885Z,26.46
2023-05-05T09:02:19.795Z,26.48
2023-05-05T09:03:19.731Z,26.49
2023-05-05T09:04:19.749Z,26.49
2023-05-05T09:05:19.909Z,26.53
2023-05-05T09:06:19.891Z,26.53
2023-05-05T09:07:20.041Z,26.53
2023-05-05T09:08:19.940Z,26.55
2023-05-05T09:09:20.042Z,26.56
2023-05-05T09:10:20.068Z,26.55
2023-05-05T09:11:20.171Z,26.58
2023-05-05T09:12:20.239Z,26.59
2023-05-05T09:13:20.422Z,26.56
2023-05-05T09:14:20.327Z,26.63
2023-05-05T09:15:20.404Z,26.59
2023-05-05T09:16:20.603Z,26.62
2023-05-05T09:17:20.612Z,26.63
2023-05-05T09:18:20.576Z,26.60
2023-05-05T09:19:20.642Z,26.63
2023-05-05T09:20:20.708Z,26.56
2023-05-05T09:21:20.758Z,26.63
2023-05-05T09:22:20.833Z,26.64
2023-05-05T09:23:20.916Z,26.66
2023-05-05T09:24:22.306Z,26.69
2023-05-05T09:25:20.996Z,26.69
2023-05-05T09:26:21.077Z,26.70
2023-05-05T09:27:21.134Z,26.73
2023-05-05T09:28:21.164Z,26.75
2023-05-05T09:29:21.302Z,26.73
2023-05-05T09:30:21.278Z,26.76
2023-05-05T09:31:21.371Z,26.75
2023-05-05T09:32:21.362Z,26.76
2023-05-05T09:33:21.450Z,26.79
2023-05-05T09:34:21.831Z,26.79
2023-05-05T09:35:21.489Z,26.80
2023-05-05T09:36:21.493Z,26.76
2023-05-05T09:37:21.557Z,26.78
2023-05-05T09:38:21.705Z,26.79
2023-05-05T09:39:21.689Z,26.76
2023-05-05T09:40:21.840Z,26.75
2023-05-05T09:41:21.804Z,26.73
2023-05-05T09:42:21.866Z,26.73
2023-05-05T09:43:22.821Z,26.72
2023-05-05T09:44:22.362Z,26.68
2023-05-05T09:45:22.089Z,26.66
2023-05-05T09:46:22.131Z,26.66
2023-05-05T09:47:29.460Z,26.64
2023-05-05T09:48:23.195Z,26.60
2023-05-05T09:49:22.391Z,26.60
2023-05-05T09:50:22.125Z,26.58
2023-05-05T09:51:22.149Z,26.59
2023-05-05T09:52:22.110Z,26.53
2023-05-05T09:53:22.157Z,26.55
2023-05-05T09:54:22.105Z,26.50
2023-05-05T09:55:22.118Z,26.49
2023-05-05T09:56:22.115Z,26.48
2023-05-05T09:57:22.081Z,26.46
2023-05-05T09:58:22.158Z,26.45
2023-05-05T09:59:22.071Z,26.48
2023-05-05T10:00:22.059Z,26.43
2023-05-05T10:01:22.143Z,26.40
2023-05-05T10:02:22.043Z,26.38
2023-05-05T10:03:22.047Z,26.40
2023-05-05T10:04:22.094Z,26.39
2023-05-05T10:05:22.228Z,26.39
2023-05-05T10:06:22.015Z,26.38
2023-05-05T10:07:22.035Z,26.34
2023-05-05T10:08:21.998Z,26.35
2023-05-05T10:09:21.979Z,26.34
2023-05-05T10:10:22.026Z,26.35
2023-05-05T10:11:22.008Z,26.35
2023-05-05T10:12:21.962Z,26.34
2023-05-05T10:13:21.944Z,26.31
2023-05-05T10:14:21.955Z,26.29
2023-05-05T10:15:22.863Z,26.29
2023-05-05T10:16:22.077Z,26.29
2023-05-05T10:17:21.957Z,26.29
2023-05-05T10:18:22.099Z,26.28
2023-05-05T10:19:21.936Z,26.28
2023-05-05T10:20:22.824Z,26.29
2023-05-05T10:21:22.027Z,26.25
2023-05-05T10:22:21.922Z,26.28
2023-05-05T10:23:21.944Z,26.28
2023-05-05T10:24:22.023Z,26.27
2023-05-05T10:25:21.930Z,26.22
2023-05-05T10:26:21.958Z,26.25
2023-05-05T10:27:22.054Z,26.22
2023-05-05T10:28:22.389Z,26.22
2023-05-05T10:29:22.020Z,26.24
2023-05-05T10:30:21.976Z,26.22
2023-05-05T10:31:26.284Z,26.27
2023-05-05T10:32:51.102Z,26.27
2023-05-05T10:34:21.992Z,26.35
2023-05-05T10:35:21.939Z,26.40
2023-05-05T10:36:21.953Z,26.40
2023-05-05T10:37:22.017Z,26.48
2023-05-05T10:38:22.717Z,26.46
2023-05-05T10:39:21.915Z,26.53
2023-05-05T10:40:21.905Z,26.55
2023-05-05T10:41:21.907Z,26.58
2023-05-05T10:42:21.932Z,26.58
2023-05-05T10:43:22.378Z,26.63
2023-05-05T10:44:22.386Z,26.66
2023-05-05T10:45:22.001Z,26.68
2023-05-05T10:46:22.091Z,26.72
2023-05-05T10:47:22.864Z,26.72
2023-05-05T10:48:22.179Z,26.73
2023-05-05T10:49:22.400Z,26.76
2023-05-05T10:50:22.836Z,26.80
2023-05-05T10:51:35.177Z,26.82
2023-05-05T10:52:23.226Z,26.85
2023-05-05T10:53:22.356Z,26.83
2023-05-05T10:54:22.268Z,26.86
2023-05-05T10:55:22.211Z,26.86
2023-05-05T10:56:22.203Z,26.87
2023-05-05T10:57:22.246Z,26.87
2023-05-05T10:58:22.251Z,26.92
2023-05-05T10:59:22.173Z,26.93
2023-05-05T11:00:22.174Z,26.92
2023-05-05T11:01:22.225Z,26.96
2023-05-05T11:02:22.164Z,26.96
2023-05-05T11:03:22.427Z,26.97
2023-05-05T11:04:22.153Z,26.99
2023-05-05T11:05:22.207Z,26.96
2023-05-05T11:06:22.190Z,26.96
2023-05-05T11:07:22.224Z,26.96
2023-05-05T11:08:22.274Z,26.92
2023-05-05T11:09:22.934Z,26.90
2023-05-05T11:10:22.342Z,26.96
2023-05-05T11:11:22.361Z,27.04
2023-05-05T11:12:22.414Z,27.06
2023-05-05T11:13:22.575Z,27.13
2023-05-05T11:14:22.490Z,27.22
2023-05-05T11:15:22.509Z,27.26
2023-05-05T11:16:22.625Z,27.32
2023-05-05T11:17:22.493Z,27.40
2023-05-05T11:18:22.542Z,27.40
2023-05-05T11:19:22.519Z,27.40
2023-05-05T11:20:22.567Z,27.40
2023-05-05T11:21:22.565Z,27.40
2023-05-05T11:22:22.565Z,27.38
2023-05-05T11:23:22.907Z,27.36
2023-05-05T11:24:22.608Z,27.33
2023-05-05T11:25:22.683Z,27.32
2023-05-05T11:26:22.666Z,27.29
2023-05-05T11:27:22.671Z,27.30
2023-05-05T11:28:22.723Z,27.26
2023-05-05T11:29:22.770Z,27.22
2023-05-05T11:30:22.820Z,27.20
2023-05-05T11:31:22.869Z,27.20
2023-05-05T11:32:23.130Z,27.13
2023-05-05T11:33:22.973Z,27.11
2023-05-05T11:34:22.993Z,27.09
2023-05-05T11:35:23.080Z,27.07
2023-05-05T11:36:23.097Z,27.03
2023-05-05T11:37:23.122Z,27.04
2023-05-05T11:38:23.192Z,27.00
2023-05-05T11:39:23.375Z,26.97
2023-05-05T11:40:23.289Z,26.97
2023-05-05T11:41:23.402Z,26.96
2023-05-05T11:42:23.366Z,26.96
2023-05-05T11:43:23.484Z,26.93
2023-05-05T11:44:23.485Z,26.92
2023-05-05T11:45:23.657Z,26.90
2023-05-05T11:46:23.636Z,26.87
2023-05-05T11:47:23.670Z,26.89
2023-05-05T11:48:23.723Z,26.86
2023-05-05T11:49:23.782Z,26.86
2023-05-05T11:50:23.804Z,26.87
2023-05-05T11:51:23.873Z,26.85
2023-05-05T11:52:23.918Z,26.83
2023-05-05T11:53:23.967Z,26.83
2023-05-05T11:54:24.037Z,26.82
2023-05-05T11:55:24.107Z,26.80
2023-05-05T11:56:24.159Z,26.83
2023-05-05T11:57:24.238Z,26.80
2023-05-05T11:58:24.234Z,26.80
2023-05-05T11:59:24.293Z,26.79
2023-05-05T12:00:24.341Z,26.78
2023-05-05T12:01:24.407Z,26.76
2023-05-05T12:02:24.512Z,26.76
2023-05-05T12:03:24.660Z,26.78
2023-05-05T12:04:24.638Z,26.73
2023-05-05T12:05:24.689Z,26.73
2023-05-05T12:06:24.759Z,26.70
2023-05-05T12:07:24.787Z,26.70
2023-05-05T12:08:24.876Z,26.70
2023-05-05T12:09:24.945Z,26.72
2023-05-05T12:10:24.980Z,26.72
2023-05-05T12:11:25.029Z,26.70
2023-05-05T12:12:25.090Z,26.70
2023-05-05T12:13:25.375Z,26.70
2023-05-05T12:14:25.212Z,26.69
2023-05-05T12:15:25.256Z,26.69
2023-05-05T12:16:25.394Z,26.69
2023-05-05T12:17:25.385Z,26.69
2023-05-05T12:18:25.433Z,26.68
2023-05-05T12:19:25.455Z,26.68
2023-05-05T12:20:25.542Z,26.70
2023-05-05T12:21:25.598Z,26.66
2023-05-05T12:22:25.612Z,26.64
2023-05-05T12:23:25.654Z,26.66
2023-05-05T12:24:25.696Z,26.64
2023-05-05T12:25:25.755Z,26.66
2023-05-05T12:26:25.821Z,26.66
2023-05-05T12:27:25.891Z,26.66
2023-05-05T12:28:25.930Z,26.62
2023-05-05T12:29:26.187Z,26.64
2023-05-05T12:30:26.106Z,26.63
2023-05-05T12:31:26.176Z,26.62
2023-05-05T12:32:26.170Z,26.63
2023-05-05T12:33:26.211Z,26.62
2023-05-05T12:34:26.228Z,26.62
2023-05-05T12:35:26.245Z,26.62
2023-05-05T12:36:27.231Z,26.62
2023-05-05T12:37:26.356Z,26.60
2023-05-05T12:38:26.352Z,26.59
2023-05-05T12:39:26.394Z,26.58
2023-05-05T12:40:26.414Z,26.59
2023-05-05T12:41:26.463Z,26.60
2023-05-05T12:42:26.486Z,26.58
2023-05-05T12:43:26.503Z,26.62
2023-05-05T12:44:26.514Z,26.58
2023-05-05T12:45:26.552Z,26.59
2023-05-05T12:46:26.611Z,26.60
2023-05-05T12:47:26.591Z,26.62
2023-05-05T12:48:26.603Z,26.59
2023-05-05T12:49:26.541Z,26.56
2023-05-05T12:50:26.537Z,26.58
2023-05-05T12:51:26.536Z,26.55
2023-05-05T12:52:26.535Z,26.58
2023-05-05T12:53:26.541Z,26.58